sensor_id;sensor_type;location;lat;lon;timestamp;temperature;humidity
74792;SHT30;63319;46.046;17.802;2022-11-18T00:02:01;20.99;53.57
74792;SHT30;63319;46.046;17.802;2022-11-18T00:05:04;20.99;53.28
74792;SHT30;63319;46.046;17.802;2022-11-18T00:08:07;20.99;53.52
74792;SHT30;63319;46.046;17.802;2022-11-18T00:11:14;21.00;53.61
74792;SHT30;63319;46.046;17.802;2022-11-18T00:14:49;20.98;53.52
74792;SHT30;63319;46.046;17.802;2022-11-18T00:17:52;20.98;53.66
74792;SHT30;63319;46.046;17.802;2022-11-18T00:20:55;20.98;53.60
74792;SHT30;63319;46.046;17.802;2022-11-18T00:24:01;21.00;53.66
74792;SHT30;63319;46.046;17.802;2022-11-18T00:27:04;20.99;53.49
74792;SHT30;63319;46.046;17.802;2022-11-18T00:30:07;20.99;53.68
74792;SHT30;63319;46.046;17.802;2022-11-18T00:33:10;20.99;53.73
74792;SHT30;63319;46.046;17.802;2022-11-18T00:36:13;20.98;53.19
74792;SHT30;63319;46.046;17.802;2022-11-18T00:39:19;20.98;53.39
74792;SHT30;63319;46.046;17.802;2022-11-18T00:42:23;20.96;53.32
74792;SHT30;63319;46.046;17.802;2022-11-18T00:45:44;20.99;53.50
74792;SHT30;63319;46.046;17.802;2022-11-18T00:48:46;20.98;53.62
74792;SHT30;63319;46.046;17.802;2022-11-18T00:51:49;20.95;53.57
74792;SHT30;63319;46.046;17.802;2022-11-18T00:54:52;20.95;53.49
74792;SHT30;63319;46.046;17.802;2022-11-18T00:57:54;20.96;53.45
74792;SHT30;63319;46.046;17.802;2022-11-18T01:00:57;20.96;53.65
74792;SHT30;63319;46.046;17.802;2022-11-18T01:04:00;20.95;53.58
74792;SHT30;63319;46.046;17.802;2022-11-18T01:07:03;20.95;53.57
74792;SHT30;63319;46.046;17.802;2022-11-18T01:10:06;20.92;53.83
74792;SHT30;63319;46.046;17.802;2022-11-18T01:13:12;20.96;53.66
74792;SHT30;63319;46.046;17.802;2022-11-18T01:16:23;20.95;53.71
74792;SHT30;63319;46.046;17.802;2022-11-18T01:19:26;20.95;53.65
74792;SHT30;63319;46.046;17.802;2022-11-18T01:22:28;20.92;53.32
74792;SHT30;63319;46.046;17.802;2022-11-18T01:25:31;20.95;53.55
74792;SHT30;63319;46.046;17.802;2022-11-18T01:28:34;20.95;53.26
74792;SHT30;63319;46.046;17.802;2022-11-18T01:31:37;20.91;53.54
74792;SHT30;63319;46.046;17.802;2022-11-18T01:35:00;20.94;53.80
74792;SHT30;63319;46.046;17.802;2022-11-18T01:38:04;20.94;53.58
74792;SHT30;63319;46.046;17.802;2022-11-18T01:41:07;20.92;53.75
74792;SHT30;63319;46.046;17.802;2022-11-18T01:48:03;20.95;53.60
74792;SHT30;63319;46.046;17.802;2022-11-18T01:51:11;20.92;53.37
74792;SHT30;63319;46.046;17.802;2022-11-18T01:54:28;20.95;53.54
74792;SHT30;63319;46.046;17.802;2022-11-18T01:57:31;20.91;53.34
74792;SHT30;63319;46.046;17.802;2022-11-18T02:00:34;20.89;53.08
74792;SHT30;63319;46.046;17.802;2022-11-18T02:03:37;20.89;53.17
74792;SHT30;63319;46.046;17.802;2022-11-18T02:06:41;20.89;53.50
74792;SHT30;63319;46.046;17.802;2022-11-18T02:09:46;20.89;53.17
74792;SHT30;63319;46.046;17.802;2022-11-18T02:12:49;20.87;52.91
74792;SHT30;63319;46.046;17.802;2022-11-18T02:16:12;20.88;53.40
74792;SHT30;63319;46.046;17.802;2022-11-18T02:30:02;20.87;53.37
74792;SHT30;63319;46.046;17.802;2022-11-18T02:33:11;20.84;53.63
74792;SHT30;63319;46.046;17.802;2022-11-18T02:36:21;20.84;53.06
74792;SHT30;63319;46.046;17.802;2022-11-18T02:39:34;20.84;53.15
74792;SHT30;63319;46.046;17.802;2022-11-18T02:42:39;20.84;53.08
74792;SHT30;63319;46.046;17.802;2022-11-18T02:45:45;20.82;52.87
74792;SHT30;63319;46.046;17.802;2022-11-18T02:48:50;20.79;53.05
74792;SHT30;63319;46.046;17.802;2022-11-18T02:51:54;20.78;53.34
74792;SHT30;63319;46.046;17.802;2022-11-18T02:54:58;20.82;53.67
74792;SHT30;63319;46.046;17.802;2022-11-18T02:58:03;20.78;53.50
74792;SHT30;63319;46.046;17.802;2022-11-18T03:01:15;20.79;53.71
74792;SHT30;63319;46.046;17.802;2022-11-18T03:04:20;20.81;53.49
74792;SHT30;63319;46.046;17.802;2022-11-18T03:07:29;20.78;53.32
74792;SHT30;63319;46.046;17.802;2022-11-18T03:10:42;20.79;53.14
74792;SHT30;63319;46.046;17.802;2022-11-18T03:20:28;20.77;53.38
74792;SHT30;63319;46.046;17.802;2022-11-18T03:23:37;20.74;53.72
74792;SHT30;63319;46.046;17.802;2022-11-18T03:26:46;20.74;52.84
74792;SHT30;63319;46.046;17.802;2022-11-18T03:29:55;20.75;53.32
74792;SHT30;63319;46.046;17.802;2022-11-18T03:33:05;20.75;53.45
74792;SHT30;63319;46.046;17.802;2022-11-18T03:36:11;20.74;52.69
74792;SHT30;63319;46.046;17.802;2022-11-18T03:39:16;20.77;53.37
74792;SHT30;63319;46.046;17.802;2022-11-18T03:42:44;20.74;53.05
74792;SHT30;63319;46.046;17.802;2022-11-18T03:45:51;20.72;52.95
74792;SHT30;63319;46.046;17.802;2022-11-18T03:48:55;20.72;52.69
74792;SHT30;63319;46.046;17.802;2022-11-18T03:52:06;20.72;53.56
74792;SHT30;63319;46.046;17.802;2022-11-18T03:55:16;20.71;52.99
74792;SHT30;63319;46.046;17.802;2022-11-18T03:58:45;20.71;53.12
74792;SHT30;63319;46.046;17.802;2022-11-18T04:01:57;20.72;53.51
74792;SHT30;63319;46.046;17.802;2022-11-18T04:05:05;20.69;53.56
74792;SHT30;63319;46.046;17.802;2022-11-18T04:08:17;20.69;53.52
74792;SHT30;63319;46.046;17.802;2022-11-18T04:11:29;20.71;53.50
74792;SHT30;63319;46.046;17.802;2022-11-18T04:14:52;20.69;53.50
74792;SHT30;63319;46.046;17.802;2022-11-18T04:17:57;20.72;53.41
74792;SHT30;63319;46.046;17.802;2022-11-18T04:21:00;20.71;53.47
74792;SHT30;63319;46.046;17.802;2022-11-18T04:24:03;20.72;53.41
74792;SHT30;63319;46.046;17.802;2022-11-18T04:27:06;20.71;53.34
74792;SHT30;63319;46.046;17.802;2022-11-18T04:30:09;20.69;53.79
74792;SHT30;63319;46.046;17.802;2022-11-18T04:33:12;20.69;53.88
74792;SHT30;63319;46.046;17.802;2022-11-18T04:36:15;20.71;54.39
74792;SHT30;63319;46.046;17.802;2022-11-18T04:39:18;20.74;54.56
74792;SHT30;63319;46.046;17.802;2022-11-18T04:42:21;20.75;54.54
74792;SHT30;63319;46.046;17.802;2022-11-18T04:45:24;20.77;54.62
74792;SHT30;63319;46.046;17.802;2022-11-18T04:48:26;20.78;54.65
74792;SHT30;63319;46.046;17.802;2022-11-18T04:51:29;20.81;54.64
74792;SHT30;63319;46.046;17.802;2022-11-18T04:54:32;20.78;54.49
74792;SHT30;63319;46.046;17.802;2022-11-18T04:57:34;20.78;54.26
74792;SHT30;63319;46.046;17.802;2022-11-18T05:00:37;20.82;54.06
74792;SHT30;63319;46.046;17.802;2022-11-18T05:03:40;20.82;54.36
74792;SHT30;63319;46.046;17.802;2022-11-18T05:06:49;20.82;54.27
74792;SHT30;63319;46.046;17.802;2022-11-18T05:09:51;20.81;54.47
74792;SHT30;63319;46.046;17.802;2022-11-18T05:12:54;20.82;54.56
74792;SHT30;63319;46.046;17.802;2022-11-18T05:16:00;20.84;54.46
74792;SHT30;63319;46.046;17.802;2022-11-18T05:19:04;20.84;54.57
74792;SHT30;63319;46.046;17.802;2022-11-18T05:22:07;20.82;54.54
74792;SHT30;63319;46.046;17.802;2022-11-18T05:25:10;20.85;54.51
74792;SHT30;63319;46.046;17.802;2022-11-18T05:28:13;20.84;54.43
74792;SHT30;63319;46.046;17.802;2022-11-18T05:31:15;20.85;54.57
74792;SHT30;63319;46.046;17.802;2022-11-18T05:34:23;20.82;54.66
74792;SHT30;63319;46.046;17.802;2022-11-18T05:37:26;20.85;54.65
74792;SHT30;63319;46.046;17.802;2022-11-18T05:40:29;20.85;54.64
74792;SHT30;63319;46.046;17.802;2022-11-18T05:43:32;20.88;54.69
74792;SHT30;63319;46.046;17.802;2022-11-18T05:46:34;20.85;54.62
74792;SHT30;63319;46.046;17.802;2022-11-18T05:49:37;20.87;54.64
74792;SHT30;63319;46.046;17.802;2022-11-18T05:52:40;20.85;54.46
74792;SHT30;63319;46.046;17.802;2022-11-18T05:58:57;20.87;54.61
74792;SHT30;63319;46.046;17.802;2022-11-18T06:02:03;20.89;54.66
74792;SHT30;63319;46.046;17.802;2022-11-18T06:05:07;20.88;54.65
74792;SHT30;63319;46.046;17.802;2022-11-18T06:08:11;20.88;54.50
74792;SHT30;63319;46.046;17.802;2022-11-18T06:11:16;20.88;54.41
74792;SHT30;63319;46.046;17.802;2022-11-18T06:14:28;20.87;54.53
74792;SHT30;63319;46.046;17.802;2022-11-18T06:17:36;20.91;54.49
74792;SHT30;63319;46.046;17.802;2022-11-18T06:20:41;20.91;54.57
74792;SHT30;63319;46.046;17.802;2022-11-18T06:23:44;20.91;54.56
74792;SHT30;63319;46.046;17.802;2022-11-18T06:26:47;20.92;54.61
74792;SHT30;63319;46.046;17.802;2022-11-18T06:29:50;20.92;54.60
74792;SHT30;63319;46.046;17.802;2022-11-18T06:32:53;20.92;54.54
74792;SHT30;63319;46.046;17.802;2022-11-18T06:35:55;20.92;54.31
74792;SHT30;63319;46.046;17.802;2022-11-18T06:39:03;20.92;54.41
74792;SHT30;63319;46.046;17.802;2022-11-18T06:42:06;20.89;54.60
74792;SHT30;63319;46.046;17.802;2022-11-18T06:45:09;20.92;54.52
74792;SHT30;63319;46.046;17.802;2022-11-18T06:48:13;20.94;54.18
74792;SHT30;63319;46.046;17.802;2022-11-18T06:51:16;20.94;54.19
74792;SHT30;63319;46.046;17.802;2022-11-18T06:54:19;20.92;53.52
74792;SHT30;63319;46.046;17.802;2022-11-18T06:57:22;20.89;53.54
74792;SHT30;63319;46.046;17.802;2022-11-18T07:00:24;20.88;53.66
74792;SHT30;63319;46.046;17.802;2022-11-18T07:03:27;20.88;54.25
74792;SHT30;63319;46.046;17.802;2022-11-18T07:06:32;20.94;54.58
74792;SHT30;63319;46.046;17.802;2022-11-18T07:09:36;20.94;54.55
74792;SHT30;63319;46.046;17.802;2022-11-18T07:12:40;20.96;54.57
74792;SHT30;63319;46.046;17.802;2022-11-18T07:15:43;20.96;54.56
74792;SHT30;63319;46.046;17.802;2022-11-18T07:18:47;21.00;54.64
74792;SHT30;63319;46.046;17.802;2022-11-18T07:21:50;21.00;54.72
74792;SHT30;63319;46.046;17.802;2022-11-18T07:24:53;21.02;54.79
74792;SHT30;63319;46.046;17.802;2022-11-18T07:27:57;21.02;54.86
74792;SHT30;63319;46.046;17.802;2022-11-18T07:31:04;21.02;54.90
74792;SHT30;63319;46.046;17.802;2022-11-18T07:34:26;21.05;54.99
74792;SHT30;63319;46.046;17.802;2022-11-18T07:37:29;21.09;55.10
74792;SHT30;63319;46.046;17.802;2022-11-18T07:40:32;21.08;55.12
74792;SHT30;63319;46.046;17.802;2022-11-18T07:43:35;21.10;55.23
74792;SHT30;63319;46.046;17.802;2022-11-18T07:46:37;21.10;55.25
74792;SHT30;63319;46.046;17.802;2022-11-18T07:49:40;21.09;55.32
74792;SHT30;63319;46.046;17.802;2022-11-18T07:52:43;21.10;55.38
74792;SHT30;63319;46.046;17.802;2022-11-18T07:55:46;21.10;55.38
74792;SHT30;63319;46.046;17.802;2022-11-18T07:58:53;21.13;55.40
74792;SHT30;63319;46.046;17.802;2022-11-18T08:01:56;21.13;55.27
74792;SHT30;63319;46.046;17.802;2022-11-18T08:04:59;21.15;55.22
74792;SHT30;63319;46.046;17.802;2022-11-18T08:08:02;21.18;55.19
74792;SHT30;63319;46.046;17.802;2022-11-18T08:11:13;21.20;55.17
74792;SHT30;63319;46.046;17.802;2022-11-18T08:14:23;21.19;55.15
74792;SHT30;63319;46.046;17.802;2022-11-18T08:17:26;21.22;55.19
74792;SHT30;63319;46.046;17.802;2022-11-18T08:20:28;21.25;55.15
74792;SHT30;63319;46.046;17.802;2022-11-18T08:23:31;21.25;55.22
74792;SHT30;63319;46.046;17.802;2022-11-18T08:26:42;21.27;55.35
74792;SHT30;63319;46.046;17.802;2022-11-18T08:29:45;21.29;55.50
74792;SHT30;63319;46.046;17.802;2022-11-18T08:32:48;21.29;55.51
74792;SHT30;63319;46.046;17.802;2022-11-18T08:35:51;21.33;55.49
74792;SHT30;63319;46.046;17.802;2022-11-18T08:38:58;21.33;55.59
74792;SHT30;63319;46.046;17.802;2022-11-18T08:42:01;21.32;55.35
74792;SHT30;63319;46.046;17.802;2022-11-18T08:45:26;21.32;56.04
74792;SHT30;63319;46.046;17.802;2022-11-18T08:48:29;21.32;56.26
74792;SHT30;63319;46.046;17.802;2022-11-18T08:51:32;21.30;56.36
74792;SHT30;63319;46.046;17.802;2022-11-18T08:54:35;21.29;56.41
74792;SHT30;63319;46.046;17.802;2022-11-18T08:57:41;21.29;56.36
74792;SHT30;63319;46.046;17.802;2022-11-18T09:00:54;21.29;56.27
74792;SHT30;63319;46.046;17.802;2022-11-18T09:03:57;21.30;56.23
74792;SHT30;63319;46.046;17.802;2022-11-18T09:07:00;21.32;56.05
74792;SHT30;63319;46.046;17.802;2022-11-18T09:10:04;21.29;55.99
74792;SHT30;63319;46.046;17.802;2022-11-18T09:13:10;21.29;55.88
74792;SHT30;63319;46.046;17.802;2022-11-18T09:16:34;21.30;55.71
74792;SHT30;63319;46.046;17.802;2022-11-18T09:19:37;21.27;55.52
74792;SHT30;63319;46.046;17.802;2022-11-18T09:23:00;21.29;55.37
74792;SHT30;63319;46.046;17.802;2022-11-18T09:26:14;21.33;55.26
74792;SHT30;63319;46.046;17.802;2022-11-18T09:29:18;21.27;55.11
74792;SHT30;63319;46.046;17.802;2022-11-18T09:32:24;21.30;54.97
74792;SHT30;63319;46.046;17.802;2022-11-18T09:35:27;21.29;54.95
74792;SHT30;63319;46.046;17.802;2022-11-18T09:38:31;21.30;54.81
74792;SHT30;63319;46.046;17.802;2022-11-18T09:45:12;21.27;54.69
74792;SHT30;63319;46.046;17.802;2022-11-18T09:48:25;21.30;54.59
74792;SHT30;63319;46.046;17.802;2022-11-18T09:51:49;21.30;54.52
74792;SHT30;63319;46.046;17.802;2022-11-18T09:54:53;21.30;54.44
74792;SHT30;63319;46.046;17.802;2022-11-18T09:57:57;21.27;54.33
74792;SHT30;63319;46.046;17.802;2022-11-18T10:01:01;21.29;54.24
74792;SHT30;63319;46.046;17.802;2022-11-18T10:04:04;21.29;54.19
74792;SHT30;63319;46.046;17.802;2022-11-18T10:07:20;21.32;54.07
74792;SHT30;63319;46.046;17.802;2022-11-18T10:14:03;21.32;53.91
74792;SHT30;63319;46.046;17.802;2022-11-18T10:20:59;21.32;53.73
74792;SHT30;63319;46.046;17.802;2022-11-18T10:24:14;21.33;53.63
74792;SHT30;63319;46.046;17.802;2022-11-18T10:27:19;21.32;53.56
74792;SHT30;63319;46.046;17.802;2022-11-18T10:30:24;21.32;53.50
74792;SHT30;63319;46.046;17.802;2022-11-18T10:33:27;21.30;53.46
74792;SHT30;63319;46.046;17.802;2022-11-18T10:36:32;21.30;53.43
74792;SHT30;63319;46.046;17.802;2022-11-18T10:39:49;21.32;53.32
74792;SHT30;63319;46.046;17.802;2022-11-18T10:42:53;21.32;53.29
74792;SHT30;63319;46.046;17.802;2022-11-18T10:45:55;21.30;53.20
74792;SHT30;63319;46.046;17.802;2022-11-18T10:52:12;21.33;53.19
74792;SHT30;63319;46.046;17.802;2022-11-18T10:55:20;21.33;53.14
74792;SHT30;63319;46.046;17.802;2022-11-18T10:58:24;21.30;52.94
74792;SHT30;63319;46.046;17.802;2022-11-18T11:01:29;21.32;52.53
74792;SHT30;63319;46.046;17.802;2022-11-18T11:04:32;21.29;52.59
74792;SHT30;63319;46.046;17.802;2022-11-18T11:07:36;21.30;52.66
74792;SHT30;63319;46.046;17.802;2022-11-18T11:10:39;21.27;52.77
74792;SHT30;63319;46.046;17.802;2022-11-18T11:13:43;21.29;52.80
74792;SHT30;63319;46.046;17.802;2022-11-18T11:23:18;21.29;52.85
74792;SHT30;63319;46.046;17.802;2022-11-18T11:30:16;21.32;52.98
74792;SHT30;63319;46.046;17.802;2022-11-18T11:33:41;21.32;53.19
74792;SHT30;63319;46.046;17.802;2022-11-18T12:07:46;21.43;53.15
74792;SHT30;63319;46.046;17.802;2022-11-18T12:11:15;21.42;53.12
74792;SHT30;63319;46.046;17.802;2022-11-18T12:14:41;21.43;53.38
74792;SHT30;63319;46.046;17.802;2022-11-18T12:24:48;21.46;53.24
74792;SHT30;63319;46.046;17.802;2022-11-18T12:27:57;21.46;53.33
74792;SHT30;63319;46.046;17.802;2022-11-18T12:40:36;21.47;53.50
74792;SHT30;63319;46.046;17.802;2022-11-18T12:47:03;21.49;53.54
74792;SHT30;63319;46.046;17.802;2022-11-18T12:50:08;21.49;53.46
74792;SHT30;63319;46.046;17.802;2022-11-18T12:56:34;21.49;53.30
74792;SHT30;63319;46.046;17.802;2022-11-18T12:59:38;21.50;53.49
74792;SHT30;63319;46.046;17.802;2022-11-18T13:02:52;21.50;53.56
74792;SHT30;63319;46.046;17.802;2022-11-18T13:06:01;21.51;53.60
74792;SHT30;63319;46.046;17.802;2022-11-18T13:09:20;21.54;53.56
74792;SHT30;63319;46.046;17.802;2022-11-18T13:12:27;21.58;53.55
74792;SHT30;63319;46.046;17.802;2022-11-18T13:15:30;21.57;53.51
74792;SHT30;63319;46.046;17.802;2022-11-18T13:18:52;21.58;53.52
74792;SHT30;63319;46.046;17.802;2022-11-18T13:21:58;21.60;53.50
74792;SHT30;63319;46.046;17.802;2022-11-18T13:25:24;21.58;53.50
74792;SHT30;63319;46.046;17.802;2022-11-18T13:35:16;21.65;53.30
74792;SHT30;63319;46.046;17.802;2022-11-18T13:38:24;21.65;53.34
74792;SHT30;63319;46.046;17.802;2022-11-18T13:41:31;21.65;53.08
74792;SHT30;63319;46.046;17.802;2022-11-18T13:44:36;21.63;53.26
74792;SHT30;63319;46.046;17.802;2022-11-18T13:47:46;21.64;71.94
74792;SHT30;63319;46.046;17.802;2022-11-18T13:50:51;21.46;56.72
74792;SHT30;63319;46.046;17.802;2022-11-18T13:53:56;21.43;55.47
74792;SHT30;63319;46.046;17.802;2022-11-18T13:56:59;21.42;56.40
74792;SHT30;63319;46.046;17.802;2022-11-18T14:00:06;21.40;58.11
74792;SHT30;63319;46.046;17.802;2022-11-18T14:06:35;21.44;59.22
74792;SHT30;63319;46.046;17.802;2022-11-18T14:09:55;21.49;59.64
74792;SHT30;63319;46.046;17.802;2022-11-18T14:12:59;21.44;59.20
74792;SHT30;63319;46.046;17.802;2022-11-18T14:19:28;21.43;59.30
74792;SHT30;63319;46.046;17.802;2022-11-18T14:22:32;21.42;59.05
74792;SHT30;63319;46.046;17.802;2022-11-18T14:25:35;21.42;58.91
74792;SHT30;63319;46.046;17.802;2022-11-18T14:28:38;21.40;59.39
74792;SHT30;63319;46.046;17.802;2022-11-18T14:31:41;21.40;58.77
74792;SHT30;63319;46.046;17.802;2022-11-18T14:34:44;21.39;58.25
74792;SHT30;63319;46.046;17.802;2022-11-18T14:37:46;21.40;58.96
74792;SHT30;63319;46.046;17.802;2022-11-18T14:40:54;21.37;58.68
74792;SHT30;63319;46.046;17.802;2022-11-18T14:43:57;21.36;58.39
74792;SHT30;63319;46.046;17.802;2022-11-18T14:47:18;21.36;58.23
74792;SHT30;63319;46.046;17.802;2022-11-18T14:50:22;21.32;57.73
74792;SHT30;63319;46.046;17.802;2022-11-18T14:53:25;21.33;57.79
74792;SHT30;63319;46.046;17.802;2022-11-18T14:56:29;21.33;56.87
74792;SHT30;63319;46.046;17.802;2022-11-18T14:59:32;21.27;56.75
74792;SHT30;63319;46.046;17.802;2022-11-18T15:02:35;21.25;56.76
74792;SHT30;63319;46.046;17.802;2022-11-18T15:05:38;21.26;57.23
74792;SHT30;63319;46.046;17.802;2022-11-18T15:08:45;21.23;56.91
74792;SHT30;63319;46.046;17.802;2022-11-18T15:11:48;21.16;57.37
74792;SHT30;63319;46.046;17.802;2022-11-18T15:14:51;21.19;57.67
74792;SHT30;63319;46.046;17.802;2022-11-18T15:17:53;21.20;57.33
74792;SHT30;63319;46.046;17.802;2022-11-18T15:20:56;21.19;57.73
74792;SHT30;63319;46.046;17.802;2022-11-18T15:23:59;21.20;57.35
74792;SHT30;63319;46.046;17.802;2022-11-18T15:27:02;21.15;56.58
74792;SHT30;63319;46.046;17.802;2022-11-18T15:30:07;21.13;57.64
74792;SHT30;63319;46.046;17.802;2022-11-18T15:33:10;21.16;57.32
74792;SHT30;63319;46.046;17.802;2022-11-18T15:36:14;21.16;57.73
74792;SHT30;63319;46.046;17.802;2022-11-18T15:39:17;21.15;57.85
74792;SHT30;63319;46.046;17.802;2022-11-18T15:42:38;21.15;57.27
74792;SHT30;63319;46.046;17.802;2022-11-18T15:45:57;21.10;57.26
74792;SHT30;63319;46.046;17.802;2022-11-18T15:48:59;21.12;57.23
74792;SHT30;63319;46.046;17.802;2022-11-18T15:52:02;21.10;57.56
74792;SHT30;63319;46.046;17.802;2022-11-18T15:55:05;21.12;57.73
74792;SHT30;63319;46.046;17.802;2022-11-18T15:58:09;21.13;57.70
74792;SHT30;63319;46.046;17.802;2022-11-18T16:01:12;21.09;57.63
74792;SHT30;63319;46.046;17.802;2022-11-18T16:04:16;21.15;57.66
74792;SHT30;63319;46.046;17.802;2022-11-18T16:07:20;21.10;56.93
74792;SHT30;63319;46.046;17.802;2022-11-18T16:10:23;21.06;57.25
74792;SHT30;63319;46.046;17.802;2022-11-18T16:13:45;21.09;56.93
74792;SHT30;63319;46.046;17.802;2022-11-18T16:16:50;21.05;57.16
74792;SHT30;63319;46.046;17.802;2022-11-18T16:19:53;21.05;57.34
74792;SHT30;63319;46.046;17.802;2022-11-18T16:22:56;21.05;57.29
74792;SHT30;63319;46.046;17.802;2022-11-18T16:25:58;21.03;56.98
74792;SHT30;63319;46.046;17.802;2022-11-18T16:29:02;21.00;56.89
74792;SHT30;63319;46.046;17.802;2022-11-18T16:32:11;21.02;56.70
74792;SHT30;63319;46.046;17.802;2022-11-18T16:35:15;21.02;57.06
74792;SHT30;63319;46.046;17.802;2022-11-18T16:38:18;21.02;57.13
74792;SHT30;63319;46.046;17.802;2022-11-18T16:41:21;21.00;57.03
74792;SHT30;63319;46.046;17.802;2022-11-18T16:44:33;21.00;56.53
74792;SHT30;63319;46.046;17.802;2022-11-18T16:47:37;20.98;57.08
74792;SHT30;63319;46.046;17.802;2022-11-18T16:50:39;20.98;56.55
74792;SHT30;63319;46.046;17.802;2022-11-18T16:53:42;20.95;56.52
74792;SHT30;63319;46.046;17.802;2022-11-18T16:56:46;20.96;56.88
74792;SHT30;63319;46.046;17.802;2022-11-18T16:59:49;20.96;56.59
74792;SHT30;63319;46.046;17.802;2022-11-18T17:02:52;20.95;57.04
74792;SHT30;63319;46.046;17.802;2022-11-18T17:05:59;20.95;56.89
74792;SHT30;63319;46.046;17.802;2022-11-18T17:09:02;20.96;56.66
74792;SHT30;63319;46.046;17.802;2022-11-18T17:12:05;20.95;56.80
74792;SHT30;63319;46.046;17.802;2022-11-18T17:15:09;20.92;56.70
74792;SHT30;63319;46.046;17.802;2022-11-18T17:18:11;20.94;56.97
74792;SHT30;63319;46.046;17.802;2022-11-18T17:21:17;20.92;56.39
74792;SHT30;63319;46.046;17.802;2022-11-18T17:24:21;20.92;56.89
74792;SHT30;63319;46.046;17.802;2022-11-18T17:27:24;20.91;56.49
74792;SHT30;63319;46.046;17.802;2022-11-18T17:30:28;20.92;56.45
74792;SHT30;63319;46.046;17.802;2022-11-18T17:33:31;20.88;56.66
74792;SHT30;63319;46.046;17.802;2022-11-18T17:36:34;20.88;56.22
74792;SHT30;63319;46.046;17.802;2022-11-18T17:39:36;20.88;56.45
74792;SHT30;63319;46.046;17.802;2022-11-18T17:42:40;20.87;56.55
74792;SHT30;63319;46.046;17.802;2022-11-18T17:45:48;20.88;56.53
74792;SHT30;63319;46.046;17.802;2022-11-18T17:48:55;20.84;56.29
74792;SHT30;63319;46.046;17.802;2022-11-18T17:51:59;20.87;56.41
74792;SHT30;63319;46.046;17.802;2022-11-18T17:55:02;20.87;56.22
74792;SHT30;63319;46.046;17.802;2022-11-18T17:58:05;20.87;56.33
74792;SHT30;63319;46.046;17.802;2022-11-18T18:01:09;20.84;56.36
74792;SHT30;63319;46.046;17.802;2022-11-18T18:04:13;20.84;56.37
74792;SHT30;63319;46.046;17.802;2022-11-18T18:07:21;20.84;55.93
74792;SHT30;63319;46.046;17.802;2022-11-18T18:10:25;20.84;56.32
74792;SHT30;63319;46.046;17.802;2022-11-18T18:13:27;20.82;56.23
74792;SHT30;63319;46.046;17.802;2022-11-18T18:16:49;20.82;56.04
74792;SHT30;63319;46.046;17.802;2022-11-18T18:19:59;20.84;56.43
74792;SHT30;63319;46.046;17.802;2022-11-18T18:23:01;20.84;56.11
74792;SHT30;63319;46.046;17.802;2022-11-18T18:26:05;20.85;56.31
74792;SHT30;63319;46.046;17.802;2022-11-18T18:29:10;20.81;56.22
74792;SHT30;63319;46.046;17.802;2022-11-18T18:32:13;20.82;56.05
74792;SHT30;63319;46.046;17.802;2022-11-18T18:35:16;20.84;56.40
74792;SHT30;63319;46.046;17.802;2022-11-18T18:38:19;20.84;55.82
74792;SHT30;63319;46.046;17.802;2022-11-18T18:41:22;20.81;55.96
74792;SHT30;63319;46.046;17.802;2022-11-18T18:44:25;20.84;56.29
74792;SHT30;63319;46.046;17.802;2022-11-18T18:47:48;20.81;56.46
74792;SHT30;63319;46.046;17.802;2022-11-18T18:50:51;20.81;56.16
74792;SHT30;63319;46.046;17.802;2022-11-18T18:53:56;20.79;56.21
74792;SHT30;63319;46.046;17.802;2022-11-18T18:57:01;20.79;55.99
74792;SHT30;63319;46.046;17.802;2022-11-18T19:00:04;20.78;56.15
74792;SHT30;63319;46.046;17.802;2022-11-18T19:03:08;20.78;55.99
74792;SHT30;63319;46.046;17.802;2022-11-18T19:06:12;20.81;56.18
74792;SHT30;63319;46.046;17.802;2022-11-18T19:09:39;20.79;56.37
74792;SHT30;63319;46.046;17.802;2022-11-18T19:12:42;20.78;56.28
74792;SHT30;63319;46.046;17.802;2022-11-18T19:15:46;20.81;55.98
74792;SHT30;63319;46.046;17.802;2022-11-18T19:18:49;20.77;56.21
74792;SHT30;63319;46.046;17.802;2022-11-18T19:21:52;20.77;56.25
74792;SHT30;63319;46.046;17.802;2022-11-18T19:24:55;20.78;55.60
74792;SHT30;63319;46.046;17.802;2022-11-18T19:27:58;20.77;56.10
74792;SHT30;63319;46.046;17.802;2022-11-18T19:31:01;20.75;56.01
74792;SHT30;63319;46.046;17.802;2022-11-18T19:34:05;20.74;55.88
74792;SHT30;63319;46.046;17.802;2022-11-18T19:37:08;20.75;56.43
74792;SHT30;63319;46.046;17.802;2022-11-18T19:40:13;20.77;56.26
74792;SHT30;63319;46.046;17.802;2022-11-18T19:43:16;20.77;56.04
74792;SHT30;63319;46.046;17.802;2022-11-18T19:46:19;20.77;55.91
74792;SHT30;63319;46.046;17.802;2022-11-18T19:49:23;20.75;56.05
74792;SHT30;63319;46.046;17.802;2022-11-18T19:52:27;20.74;56.27
74792;SHT30;63319;46.046;17.802;2022-11-18T19:55:30;20.75;56.10
74792;SHT30;63319;46.046;17.802;2022-11-18T19:58:34;20.74;55.94
74792;SHT30;63319;46.046;17.802;2022-11-18T20:01:38;20.75;55.90
74792;SHT30;63319;46.046;17.802;2022-11-18T20:04:41;20.72;56.06
74792;SHT30;63319;46.046;17.802;2022-11-18T20:08:04;20.74;56.06
74792;SHT30;63319;46.046;17.802;2022-11-18T20:11:09;20.74;56.06
74792;SHT30;63319;46.046;17.802;2022-11-18T20:14:12;20.74;56.13
74792;SHT30;63319;46.046;17.802;2022-11-18T20:17:15;20.74;56.09
74792;SHT30;63319;46.046;17.802;2022-11-18T20:20:19;20.74;55.94
74792;SHT30;63319;46.046;17.802;2022-11-18T20:23:22;20.71;56.03
74792;SHT30;63319;46.046;17.802;2022-11-18T20:26:27;20.71;56.05
74792;SHT30;63319;46.046;17.802;2022-11-18T20:29:31;20.75;56.27
74792;SHT30;63319;46.046;17.802;2022-11-18T20:32:34;20.69;55.94
74792;SHT30;63319;46.046;17.802;2022-11-18T20:35:39;20.71;55.83
74792;SHT30;63319;46.046;17.802;2022-11-18T20:38:42;20.68;55.75
74792;SHT30;63319;46.046;17.802;2022-11-18T20:41:45;20.69;55.98
74792;SHT30;63319;46.046;17.802;2022-11-18T20:45:11;20.68;55.83
74792;SHT30;63319;46.046;17.802;2022-11-18T20:48:14;20.68;55.70
74792;SHT30;63319;46.046;17.802;2022-11-18T20:51:22;20.65;55.92
74792;SHT30;63319;46.046;17.802;2022-11-18T20:54:25;20.65;55.95
74792;SHT30;63319;46.046;17.802;2022-11-18T20:57:28;20.65;56.08
74792;SHT30;63319;46.046;17.802;2022-11-18T21:00:31;20.68;55.84
74792;SHT30;63319;46.046;17.802;2022-11-18T21:03:35;20.65;56.05
74792;SHT30;63319;46.046;17.802;2022-11-18T21:06:38;20.64;55.69
74792;SHT30;63319;46.046;17.802;2022-11-18T21:09:41;20.64;56.02
74792;SHT30;63319;46.046;17.802;2022-11-18T21:12:45;20.64;56.03